Bertha, Alabama
Current Conditions -  °F | °C
As of 2:53 AM on Sunday 21 Dec 2014 (Local Time) from KHEY Reporting Station
Overcast Overcast  
Wind Chill: 52°   Ceiling: 800
Heat Index: 52°   Visibility: 9mi
Dew Point: 50°   Wind: 8mph
Humidity: 93%   Direction: 40°NE
Pressure: 30.13"   Gusts: NA
Location:  31.5608°N, 85.5447°W
Report Text: KHEY 210853Z AUTO 04007KT 9SM OVC008 11/10 A3013 RMK AO2 CIG 007V011 SLP189 T01110100 56004
Loading
Personal Weather Stations






























Interactive Weather Map New forecast layout! Learn more

10-Day Weather Forecast

Advertisements
Track Severe Weather on mobile